Time;durP1;ratioP1;P1;durP2;ratioP2;P2;SDS_P1;SDS_P2;PMS_P1;PMS_P2;Temp;Humidity;BMP_temperature;BMP_pressure;BME280_temperature;BME280_humidity;BME280_pressure;Samples;Min_cycle;Max_cycle;Signal;HPM_P1;HPM_P2
2023/03/28 00:01:38;;;;;;;;;;;2.30;66.70;;;;;;5048842;28;20025;-78
2023/03/28 00:04:04;;;;;;;3.42;0.90;;;2.30;67.20;;;;;;5048416;28;20000;-76
2023/03/28 00:06:30;;;;;;;;;;;2.20;67.80;;;;;;5048852;28;20509;-78
2023/03/28 00:08:56;;;;;;;4.10;1.03;;;2.10;67.70;;;;;;5046953;28;19913;-77
2023/03/28 00:11:22;;;;;;;2.28;0.98;;;2.20;65.40;;;;;;5047078;28;20259;-77
2023/03/28 00:13:59;;;;;;;1.92;0.50;;;2.20;66.10;;;;;;5047271;28;20032;-77
2023/03/28 00:16:32;;;;;;;;;;;2.20;66.50;;;;;;5047558;28;20056;-76
2023/03/28 00:19:04;;;;;;;3.08;0.60;;;2.20;66.50;;;;;;5047009;28;19919;-78
2023/03/28 00:21:33;;;;;;;1.65;0.50;;;2.10;66.20;;;;;;5046811;28;20013;-78
2023/03/28 00:24:01;;;;;;;2.05;0.73;;;2.20;64.40;;;;;;5046764;28;20036;-77
2023/03/28 00:26:31;;;;;;;1.95;0.50;;;2.20;64.10;;;;;;5046893;28;20107;-77
2023/03/28 00:28:57;;;;;;;3.72;0.73;;;2.20;64.20;;;;;;5048271;28;20032;-77
2023/03/28 00:31:25;;;;;;;4.38;0.60;;;2.10;64.10;;;;;;5046839;28;20037;-78
2023/03/28 00:33:51;;;;;;;2.58;0.45;;;2.10;64.00;;;;;;5046858;28;20041;-78
2023/03/28 00:36:21;;;;;;;1.60;0.65;;;2.10;64.20;;;;;;5046887;28;20094;-77
2023/03/28 00:38:48;;;;;;;3.88;0.73;;;2.10;63.70;;;;;;5048144;28;20032;-77
2023/03/28 00:41:17;;;;;;;2.75;0.40;;;2.10;63.80;;;;;;5048139;28;20045;-76
2023/03/28 00:43:45;;;;;;;4.35;0.50;;;2.10;63.30;;;;;;5048264;28;20025;-78
2023/03/28 00:46:26;;;;;;;1.95;0.40;;;2.10;63.10;;;;;;5046985;28;20025;-78
2023/03/28 00:48:58;;;;;;;1.25;0.32;;;2.00;63.40;;;;;;5046844;28;20457;-77
2023/03/28 00:51:32;;;;;;;2.75;0.90;;;2.10;63.00;;;;;;5047982;28;20033;-79
2023/03/28 00:54:00;;;;;;;1.35;0.40;;;2.00;63.40;;;;;;5046509;28;20024;-75
2023/03/28 00:56:30;;;;;;;1.85;0.50;;;2.00;62.60;;;;;;5048134;28;20111;-78
2023/03/28 00:58:57;;;;;;;1.65;0.50;;;2.00;62.10;;;;;;5046684;28;20040;-74
2023/03/28 01:01:23;;;;;;;3.95;0.60;;;1.90;62.00;;;;;;5046471;28;20033;-76
2023/03/28 01:03:51;;;;;;;;;;;1.90;62.20;;;;;;5048281;28;20040;-77
2023/03/28 01:06:20;;;;;;;1.77;0.43;;;1.90;62.20;;;;;;5049466;28;19966;-76
2023/03/28 01:08:48;;;;;;;3.20;0.88;;;1.80;62.00;;;;;;5050486;28;20029;-77
2023/03/28 01:11:15;;;;;;;5.22;0.60;;;1.80;62.70;;;;;;5050352;28;20025;-77
2023/03/28 01:13:45;;;;;;;1.00;0.30;;;1.80;62.10;;;;;;5050136;28;20033;-76
2023/03/28 01:16:13;;;;;;;1.63;0.40;;;1.70;61.90;;;;;;5050326;28;20028;-76
2023/03/28 01:18:40;;;;;;;1.98;0.45;;;1.70;62.40;;;;;;5051077;28;20512;-77
2023/03/28 01:21:11;;;;;;;2.22;0.75;;;1.70;63.70;;;;;;5051507;28;20040;-76
2023/03/28 01:24:03;;;;;;;4.35;0.70;;;1.60;63.80;;;;;;5051181;28;20032;-78
2023/03/28 01:27:05;;;;;;;1.13;0.40;;;1.60;62.90;;;;;;5051490;28;20025;-77
2023/03/28 01:30:02;;;;;;;3.75;0.63;;;1.60;63.00;;;;;;5049072;28;20116;-78
2023/03/28 01:32:39;;;;;;;1.40;0.30;;;1.50;64.90;;;;;;5051247;28;20375;-77
2023/03/28 01:35:42;;;;;;;5.13;0.30;;;1.50;64.70;;;;;;5051038;28;20126;-78
2023/03/28 01:38:22;;;;;;;2.53;0.60;;;1.40;65.20;;;;;;5051057;28;20025;-77
2023/03/28 01:40:59;;;;;;;3.15;0.30;;;1.30;65.60;;;;;;5051002;28;20094;-77
2023/03/28 01:43:25;;;;;;;2.90;0.60;;;1.30;66.40;;;;;;5049420;28;20036;-78
2023/03/28 01:46:11;;;;;;;;;;;1.30;65.10;;;;;;5051485;28;20028;-78
2023/03/28 01:49:10;;;;;;;1.55;0.40;;;1.30;65.20;;;;;;5049753;28;19913;-77
2023/03/28 01:51:39;;;;;;;1.60;0.40;;;1.20;65.80;;;;;;5050802;28;20405;-78
2023/03/28 01:54:27;;;;;;;1.83;0.63;;;1.20;65.20;;;;;;5050990;28;20102;-78
2023/03/28 01:56:59;;;;;;;3.53;0.98;;;1.20;64.30;;;;;;5049385;28;20485;-77
2023/03/28 01:59:37;;;;;;;3.78;0.70;;;1.10;65.00;;;;;;5049311;28;20048;-78
2023/03/28 02:02:03;;;;;;;2.80;0.75;;;1.20;64.40;;;;;;5048844;28;20127;-79
2023/03/28 02:04:29;;;;;;;;;;;1.30;64.30;;;;;;5050930;28;20040;-80
2023/03/28 02:06:57;;;;;;;2.75;0.50;;;1.30;64.40;;;;;;5050558;28;19916;-82
2023/03/28 02:09:25;;;;;;;2.65;0.73;;;1.40;63.80;;;;;;5050493;28;20056;-77
2023/03/28 02:12:07;;;;;;;3.30;0.95;;;1.50;63.80;;;;;;5050443;28;20108;-78
2023/03/28 02:14:40;;;;;;;3.90;0.70;;;1.50;64.20;;;;;;5048992;28;20029;-77
2023/03/28 02:17:14;;;;;;;3.03;0.90;;;1.60;64.60;;;;;;5048949;28;20482;-76
2023/03/28 02:19:45;;;;;;;3.95;0.40;;;1.50;64.80;;;;;;5048735;28;20063;-77
2023/03/28 02:22:31;;;;;;;1.90;0.40;;;1.60;64.70;;;;;;5049661;28;20033;-77
2023/03/28 02:24:57;;;;;;;2.43;0.50;;;1.60;64.60;;;;;;5049772;28;20024;-77
2023/03/28 02:27:22;;;;;;;;;;;1.60;64.40;;;;;;5050759;28;20036;-79
2023/03/28 02:29:49;;;;;;;1.42;0.50;;;1.60;64.00;;;;;;5048623;28;20692;-77
2023/03/28 02:32:16;;;;;;;2.92;0.52;;;1.60;64.60;;;;;;5049913;28;20029;-77
2023/03/28 02:34:44;;;;;;;2.45;0.50;;;1.60;64.40;;;;;;5048355;28;20117;-77
2023/03/28 02:37:25;;;;;;;2.85;0.60;;;1.50;64.30;;;;;;5048711;28;20033;-78
2023/03/28 02:40:15;;;;;;;2.08;0.50;;;1.60;63.70;;;;;;5048773;28;20075;-77
2023/03/28 02:43:01;;;;;;;3.53;0.80;;;1.60;64.40;;;;;;5049946;28;20033;-78
2023/03/28 02:45:35;;;;;;;3.75;0.90;;;1.60;63.50;;;;;;5048721;28;20064;-78
2023/03/28 02:48:39;;;;;;;4.03;0.60;;;1.50;64.00;;;;;;5049808;28;20094;-78
2023/03/28 02:51:33;;;;;;;5.07;0.80;;;1.50;63.80;;;;;;5048311;28;20056;-77
2023/03/28 02:54:08;;;;;;;4.35;0.60;;;1.50;64.10;;;;;;5049581;28;20107;-77
2023/03/28 02:56:51;;;;;;;1.92;0.50;;;1.50;64.50;;;;;;5049694;28;20032;-77
2023/03/28 02:59:32;;;;;;;1.95;0.45;;;1.40;64.70;;;;;;5049482;28;20509;-77
2023/03/28 03:01:58;;;;;;;2.20;0.50;;;1.50;63.90;;;;;;5049520;28;20049;-78
2023/03/28 03:04:24;;;;;;;4.07;0.40;;;1.50;64.60;;;;;;5049444;28;20025;-77
2023/03/28 03:06:50;;;;;;;;;;;1.50;65.20;;;;;;5048756;28;20132;-77
2023/03/28 03:09:16;;;;;;;7.47;1.30;;;1.50;65.20;;;;;;5049365;28;19905;-77
2023/03/28 03:11:42;;;;;;;4.38;1.13;;;1.40;65.20;;;;;;5049451;28;20029;-78
2023/03/28 03:14:08;;;;;;;;;;;1.40;65.20;;;;;;5048327;28;20025;-77
2023/03/28 03:16:33;;;;;;;6.38;1.77;;;1.40;65.30;;;;;;5049209;28;19908;-77
2023/03/28 03:18:59;;;;;;;;;;;1.30;65.30;;;;;;5049851;28;20032;-77
2023/03/28 03:21:25;;;;;;;3.05;1.00;;;1.40;64.80;;;;;;5047888;28;19927;-78
2023/03/28 03:23:51;;;;;;;3.50;1.00;;;1.30;64.80;;;;;;5047704;28;20031;-78
2023/03/28 03:26:17;;;;;;;2.83;0.82;;;1.40;64.70;;;;;;5047869;28;20029;-78
2023/03/28 03:28:46;;;;;;;;;;;1.30;64.70;;;;;;5047821;28;20436;-77
2023/03/28 03:31:11;;;;;;;2.35;0.70;;;1.30;65.20;;;;;;5049062;28;19914;-78
2023/03/28 03:33:37;;;;;;;;;;;1.20;64.80;;;;;;5047637;28;20111;-77
2023/03/28 03:36:04;;;;;;;2.75;0.60;;;1.20;64.30;;;;;;5047729;28;19920;-77
2023/03/28 03:38:30;;;;;;;2.33;0.70;;;1.20;65.00;;;;;;5047570;28;20028;-78
2023/03/28 03:40:55;;;;;;;;;;;1.20;65.20;;;;;;5049295;28;20043;-77
2023/03/28 03:43:21;;;;;;;2.50;0.70;;;1.20;65.20;;;;;;5047426;28;20007;-79
2023/03/28 03:45:46;;;;;;;;;;;1.30;65.30;;;;;;5049249;28;20067;-77
2023/03/28 03:48:12;;;;;;;4.18;0.85;;;1.30;64.20;;;;;;5047396;28;19908;-77
2023/03/28 03:50:38;;;;;;;;;;;1.20;65.10;;;;;;5049220;28;20025;-77
2023/03/28 03:53:03;;;;;;;3.38;1.05;;;1.20;65.50;;;;;;5047179;28;19908;-78
2023/03/28 03:55:29;;;;;;;;;;;1.20;65.60;;;;;;5049082;28;20025;-78
2023/03/28 03:57:54;;;;;;;7.85;3.10;;;1.10;65.90;;;;;;5047589;28;19908;-77
2023/03/28 04:00:20;;;;;;;;;;;1.10;66.10;;;;;;5047711;28;20202;-78
2023/03/28 04:02:46;;;;;;;4.57;1.30;;;1.10;66.10;;;;;;5047424;28;19904;-77
2023/03/28 04:05:12;;;;;;;4.50;1.13;;;1.10;66.10;;;;;;5048520;28;20024;-78
2023/03/28 04:07:38;;;;;;;;;;;1.10;66.20;;;;;;5048631;28;20630;-77
2023/03/28 04:10:04;;;;;;;4.68;1.17;;;1.20;65.90;;;;;;5046919;28;19915;-77
2023/03/28 04:12:30;;;;;;;3.25;0.98;;;1.20;66.00;;;;;;5048486;28;20033;-77
2023/03/28 04:14:56;;;;;;;;;;;1.10;66.40;;;;;;5048786;28;20055;-77
2023/03/28 04:17:22;;;;;;;4.05;0.70;;;1.10;66.60;;;;;;5048279;28;19916;-77
2023/03/28 04:19:48;;;;;;;3.03;1.05;;;1.10;66.40;;;;;;5048354;28;20174;-77
2023/03/28 04:22:17;;;;;;;1.95;0.82;;;1.00;66.50;;;;;;5048307;28;20017;-77
2023/03/28 04:24:43;;;;;;;3.22;1.00;;;1.10;66.80;;;;;;5048066;28;20167;-77
2023/03/28 04:27:12;;;;;;;3.78;0.80;;;1.00;67.10;;;;;;5047212;28;20037;-77
2023/03/28 04:29:40;;;;;;;3.92;1.05;;;1.10;66.30;;;;;;5048164;28;20769;-77
2023/03/28 04:32:06;;;;;;;7.72;2.08;;;1.10;66.00;;;;;;5048281;28;20021;-77
2023/03/28 04:34:32;;;;;;;;;;;1.10;66.60;;;;;;5047081;28;20064;-77
2023/03/28 04:37:00;;;;;;;2.75;0.73;;;1.10;66.50;;;;;;5048310;28;19912;-78
2023/03/28 04:39:30;;;;;;;5.00;1.38;;;1.20;65.60;;;;;;5048166;28;20120;-83
2023/03/28 04:42:00;;;;;;;5.68;0.90;;;1.20;65.60;;;;;;5050974;28;20025;-82
2023/03/28 04:44:26;;;;;;;3.28;0.90;;;1.30;65.10;;;;;;5052903;28;20040;-78
2023/03/28 04:46:52;;;;;;;4.85;0.90;;;1.30;65.30;;;;;;5052715;28;20071;-79
2023/03/28 04:49:18;;;;;;;;;;;1.50;63.90;;;;;;5052424;28;20060;-78
2023/03/28 04:51:43;;;;;;;2.58;0.80;;;1.40;64.70;;;;;;5050658;28;19915;-76
2023/03/28 04:54:09;;;;;;;;;;;1.40;64.60;;;;;;5052234;28;20033;-78
2023/03/28 04:56:35;;;;;;;3.88;0.80;;;1.50;65.90;;;;;;5051662;28;19909;-77
2023/03/28 04:59:00;;;;;;;;;;;1.40;65.00;;;;;;5051098;28;20025;-78
2023/03/28 05:01:26;;;;;;;3.90;1.13;;;1.40;65.80;;;;;;5051509;28;20392;-78
2023/03/28 05:03:52;;;;;;;;;;;1.50;66.40;;;;;;5052296;28;20432;-77
2023/03/28 05:06:18;;;;;;;6.00;2.42;;;1.70;65.60;;;;;;5051640;28;19961;-78
2023/03/28 05:08:43;;;;;;;3.42;1.20;;;1.80;65.50;;;;;;5050333;28;20029;-78
2023/03/28 05:11:10;;;;;;;;;;;1.80;65.40;;;;;;5051928;28;20496;-77
2023/03/28 05:13:36;;;;;;;3.33;0.82;;;1.80;65.60;;;;;;5050053;28;19905;-77
2023/03/28 05:16:01;;;;;;;;;;;1.90;65.80;;;;;;5050855;28;20028;-79
2023/03/28 05:18:27;;;;;;;3.63;1.10;;;1.90;66.50;;;;;;5050232;28;19904;-77
2023/03/28 05:20:52;;;;;;;;;;;1.90;67.60;;;;;;5050422;28;20041;-77
2023/03/28 05:23:18;;;;;;;6.32;1.80;;;2.00;67.30;;;;;;5051282;28;19915;-78
2023/03/28 05:25:48;;;;;;;;;;;1.90;67.30;;;;;;5050294;28;20486;-78
2023/03/28 05:28:14;;;;;;;4.60;1.63;;;1.90;67.90;;;;;;5051095;28;19909;-76
2023/03/28 05:30:39;;;;;;;;;;;1.90;68.60;;;;;;5051664;28;20033;-77
2023/03/28 05:33:05;;;;;;;19.08;8.30;;;2.10;69.00;;;;;;5049906;28;20381;-77
2023/03/28 05:35:30;;;;;;;;;;;2.30;69.70;;;;;;5051334;28;20049;-78
2023/03/28 05:37:56;;;;;;;9.98;3.42;;;2.70;69.40;;;;;;5049941;28;19909;-75
2023/03/28 05:40:22;;;;;;;15.00;3.65;;;3.40;67.80;;;;;;5050716;28;20505;-77
2023/03/28 05:42:48;;;;;;;;;;;4.10;65.30;;;;;;5051800;28;20413;-77
2023/03/28 05:45:14;;;;;;;9.15;4.10;;;4.50;63.80;;;;;;5050919;28;20387;-77
2023/03/28 05:47:39;;;;;;;;;;;5.10;63.00;;;;;;5051402;28;20031;-77
2023/03/28 05:50:06;;;;;;;9.57;3.97;;;5.60;61.20;;;;;;5049587;28;19908;-78
2023/03/28 05:52:31;;;;;;;12.30;4.20;;;6.00;59.80;;;;;;5049330;28;20398;-77
2023/03/28 05:54:57;;;;;;;;;;;6.40;59.00;;;;;;5051187;28;20028;-78
2023/03/28 05:57:24;;;;;;;11.25;4.65;;;6.70;58.10;;;;;;5049144;28;19912;-76
2023/03/28 05:59:50;;;;;;;6.65;2.63;;;7.00;57.20;;;;;;5049281;28;20087;-75
2023/03/28 06:02:18;;;;;;;10.63;3.15;;;6.50;57.40;;;;;;5050452;28;20021;-77
2023/03/28 06:04:44;;;;;;;8.38;3.70;;;6.50;58.30;;;;;;5049375;28;20033;-77
2023/03/28 06:07:11;;;;;;;6.88;3.08;;;6.40;58.90;;;;;;5049339;28;20032;-77
2023/03/28 06:09:37;;;;;;;5.57;2.72;;;6.20;59.40;;;;;;5050244;28;20033;-77
2023/03/28 06:12:03;;;;;;;;;;;6.30;60.20;;;;;;5050722;28;20028;-77
2023/03/28 06:14:30;;;;;;;7.45;3.00;;;6.20;60.00;;;;;;5050238;28;19908;-77
2023/03/28 06:16:56;;;;;;;7.10;3.08;;;6.30;60.20;;;;;;5050130;28;20035;-78
2023/03/28 06:19:22;;;;;;;8.20;2.60;;;6.80;59.70;;;;;;5048689;28;20095;-77
2023/03/28 06:21:48;;;;;;;;;;;7.20;59.40;;;;;;5049439;28;20021;-77
2023/03/28 06:24:13;;;;;;;7.15;2.03;;;7.60;58.50;;;;;;5048620;28;20373;-77
2023/03/28 06:26:39;;;;;;;;;;;7.70;58.60;;;;;;5049431;28;20064;-78
2023/03/28 06:29:05;;;;;;;6.25;2.40;;;8.00;57.80;;;;;;5049865;28;20361;-77
2023/03/28 06:31:31;;;;;;;;;;;8.40;57.20;;;;;;5049518;28;20033;-78
2023/03/28 06:33:56;;;;;;;4.80;1.70;;;9.00;55.80;;;;;;5049622;28;19916;-79
2023/03/28 06:36:22;;;;;;;;;;;9.10;54.10;;;;;;5049035;28;20041;-78
2023/03/28 06:38:49;;;;;;;5.50;2.10;;;8.80;54.20;;;;;;5048994;28;19965;-78
2023/03/28 06:41:15;;;;;;;6.22;1.98;;;9.10;54.10;;;;;;5049884;28;20053;-77
2023/03/28 06:43:41;;;;;;;5.18;1.80;;;9.10;54.40;;;;;;5048262;28;20021;-77
2023/03/28 06:46:07;;;;;;;;;;;9.80;53.70;;;;;;5048963;28;20099;-77
2023/03/28 06:48:32;;;;;;;4.80;1.63;;;9.90;52.80;;;;;;5048293;28;19905;-77
2023/03/28 06:50:58;;;;;;;;;;;10.50;51.40;;;;;;5048822;28;20115;-78
2023/03/28 06:53:24;;;;;;;5.43;2.40;;;10.80;51.20;;;;;;5048147;28;19909;-78
2023/03/28 06:55:50;;;;;;;;;;;10.70;50.30;;;;;;5050018;28;20100;-77
2023/03/28 06:58:16;;;;;;;5.40;1.25;;;11.00;50.00;;;;;;5049536;28;20351;-77
2023/03/28 07:00:42;;;;;;;3.60;1.60;;;10.90;50.00;;;;;;5048221;28;20041;-78
2023/03/28 07:03:08;;;;;;;;;;;11.30;50.30;;;;;;5047915;28;20056;-78
2023/03/28 07:05:39;;;;;;;3.08;1.20;;;12.10;48.30;;;;;;5049042;28;19908;-78
2023/03/28 07:08:07;;;;;;;5.20;1.38;;;12.30;48.60;;;;;;5049246;28;20021;-79
2023/03/28 07:10:33;;;;;;;2.80;1.25;;;12.60;46.80;;;;;;5049350;28;20497;-79
2023/03/28 07:12:59;;;;;;;2.55;1.00;;;12.50;46.20;;;;;;5049193;28;20036;-79
2023/03/28 07:15:24;;;;;;;;;;;12.00;47.20;;;;;;5049571;28;20036;-79
2023/03/28 07:17:52;;;;;;;3.92;1.63;;;12.50;46.80;;;;;;5048021;28;19908;-80
2023/03/28 07:20:18;;;;;;;2.45;1.25;;;12.50;46.80;;;;;;5049450;28;20029;-79
2023/03/28 07:22:44;;;;;;;5.97;1.70;;;12.50;47.10;;;;;;5049135;28;20471;-77
2023/03/28 07:25:09;;;;;;;;;;;12.60;46.20;;;;;;5049221;28;20025;-78
2023/03/28 07:27:35;;;;;;;3.13;0.90;;;13.20;45.10;;;;;;5047649;28;19909;-80
2023/03/28 07:30:01;;;;;;;2.88;0.95;;;13.60;44.60;;;;;;5048818;28;20093;-78
2023/03/28 07:32:26;;;;;;;3.80;1.35;;;13.70;44.90;;;;;;5048623;28;20025;-78
2023/03/28 07:34:52;;;;;;;2.58;1.33;;;14.00;44.10;;;;;;5047413;28;20385;-79
2023/03/28 07:37:18;;;;;;;9.25;3.50;;;14.30;43.40;;;;;;5047041;28;20128;-78
2023/03/28 07:39:44;;;;;;;7.75;2.45;;;14.20;42.40;;;;;;5047475;28;20037;-79
2023/03/28 07:42:11;;;;;;;4.13;1.63;;;14.50;42.20;;;;;;5048858;28;20036;-78
2023/03/28 07:44:37;;;;;;;9.10;3.90;;;14.30;42.50;;;;;;5047387;28;20033;-77
2023/03/28 07:47:03;;;;;;;6.88;2.80;;;14.50;41.90;;;;;;5048579;28;20037;-77
2023/03/28 07:49:29;;;;;;;6.07;2.50;;;14.40;42.70;;;;;;5048908;28;20578;-79
2023/03/28 07:51:55;;;;;;;15.15;2.63;;;14.70;41.10;;;;;;5047259;28;20036;-78
2023/03/28 07:54:21;;;;;;;3.67;1.67;;;14.70;41.20;;;;;;5048558;28;20021;-76
2023/03/28 07:56:47;;;;;;;4.07;1.38;;;15.00;40.80;;;;;;5048319;28;20056;-78
2023/03/28 07:59:14;;;;;;;6.68;2.08;;;15.00;41.70;;;;;;5046918;28;20036;-78
2023/03/28 08:01:44;;;;;;;5.53;2.00;;;15.00;41.10;;;;;;5047334;28;20369;-79
2023/03/28 08:04:11;;;;;;;3.50;1.17;;;14.80;41.10;;;;;;5047073;28;20110;-79
2023/03/28 08:06:38;;;;;;;2.78;0.90;;;15.10;41.50;;;;;;5048822;28;20557;-79
2023/03/28 08:09:06;;;;;;;2.75;0.93;;;15.10;40.70;;;;;;5048557;28;20021;-79
2023/03/28 08:11:33;;;;;;;2.03;0.60;;;14.60;41.00;;;;;;5047129;28;20028;-79
2023/03/28 08:14:03;;;;;;;3.40;1.20;;;14.50;41.80;;;;;;5047281;28;20489;-78
2023/03/28 08:16:29;;;;;;;3.10;0.90;;;14.10;41.10;;;;;;5047441;28;20021;-79
2023/03/28 08:18:55;;;;;;;;;;;14.00;42.30;;;;;;5048961;28;20374;-78
2023/03/28 08:21:21;;;;;;;2.75;0.60;;;14.10;41.80;;;;;;5047020;28;19912;-78
2023/03/28 08:23:47;;;;;;;2.63;0.88;;;13.80;42.50;;;;;;5047143;28;20033;-79
2023/03/28 08:26:13;;;;;;;;;;;13.20;42.90;;;;;;5049361;28;20028;-79
2023/03/28 08:28:40;;;;;;;2.33;0.80;;;12.20;45.30;;;;;;5048225;28;19909;-78
2023/03/28 08:31:14;;;;;;;1.75;0.80;;;11.40;46.70;;;;;;5048330;28;20070;-77
2023/03/28 08:33:42;;;;;;;5.13;0.70;;;10.70;47.60;;;;;;5047785;28;20021;-77
2023/03/28 08:36:09;;;;;;;2.17;0.70;;;11.00;48.20;;;;;;5047105;28;20382;-79
2023/03/28 08:38:35;;;;;;;2.00;0.55;;;11.50;47.30;;;;;;5047210;28;20021;-79
2023/03/28 08:41:26;;;;;;;1.50;0.52;;;12.00;46.20;;;;;;5047254;28;20033;-79
2023/03/28 08:43:51;;;;;;;2.40;0.88;;;11.90;45.20;;;;;;5048015;28;20048;-79
2023/03/28 08:46:18;;;;;;;;;;;11.60;46.50;;;;;;5047159;28;20504;-77
2023/03/28 08:48:46;;;;;;;2.08;0.75;;;11.80;50.20;;;;;;5046561;28;19913;-79
2023/03/28 08:51:16;;;;;;;3.88;0.85;;;12.00;49.20;;;;;;5048009;28;20163;-78
2023/03/28 08:53:48;;;;;;;4.97;1.10;;;11.40;50.40;;;;;;5046578;28;20029;-78
2023/03/28 08:56:15;;;;;;;3.35;0.80;;;10.80;51.40;;;;;;5046270;28;20036;-77
2023/03/28 08:59:06;;;;;;;3.53;0.80;;;10.90;51.50;;;;;;5046422;28;20029;-76
2023/03/28 09:01:32;;;;;;;1.52;0.90;;;11.00;51.10;;;;;;5046743;28;20505;-78
2023/03/28 09:03:58;;;;;;;;;;;10.80;50.10;;;;;;5048131;28;20044;-77
2023/03/28 09:06:30;;;;;;;1.98;0.73;;;11.00;53.20;;;;;;5046477;28;19913;-76
2023/03/28 09:08:56;;;;;;;2.90;0.90;;;11.00;52.40;;;;;;5046404;28;20450;-77
2023/03/28 09:11:28;;;;;;;;;;;10.80;51.80;;;;;;5046806;28;20024;-76
2023/03/28 09:14:17;;;;;;;6.38;1.33;;;10.70;50.30;;;;;;5047601;28;19915;-76
2023/03/28 09:16:58;;;;;;;3.22;0.93;;;10.50;51.10;;;;;;5046421;28;20066;-76
2023/03/28 09:19:32;;;;;;;3.28;1.15;;;10.70;51.10;;;;;;5046218;28;20040;-78
2023/03/28 09:22:24;;;;;;;3.40;1.17;;;11.30;51.60;;;;;;5047817;28;20028;-76
2023/03/28 09:25:10;;;;;;;3.90;0.75;;;11.30;52.60;;;;;;5047300;28;20041;-76
2023/03/28 09:28:00;;;;;;;2.70;0.65;;;11.40;54.70;;;;;;5049463;28;20063;-76
2023/03/28 09:30:41;;;;;;;2.45;0.80;;;12.00;53.50;;;;;;5049992;28;20033;-77
2023/03/28 09:33:17;;;;;;;4.50;1.05;;;12.30;53.80;;;;;;5050540;28;20044;-77
2023/03/28 09:35:44;;;;;;;2.28;0.73;;;12.80;54.40;;;;;;5050883;28;20124;-77
2023/03/28 09:38:20;;;;;;;3.90;0.65;;;13.20;54.00;;;;;;5051015;28;20033;-77
2023/03/28 09:40:48;;;;;;;1.52;0.70;;;13.60;52.90;;;;;;5049702;28;20177;-78
2023/03/28 09:43:23;;;;;;;3.83;0.70;;;13.90;51.10;;;;;;5049678;28;20318;-77
2023/03/28 09:46:04;;;;;;;1.23;0.40;;;13.70;50.80;;;;;;5051034;28;20108;-77
2023/03/28 09:48:35;;;;;;;2.63;0.52;;;13.20;51.80;;;;;;5049704;28;20044;-76
2023/03/28 09:51:03;;;;;;;1.17;0.40;;;13.40;50.90;;;;;;5050938;28;20047;-76
2023/03/28 09:53:35;;;;;;;2.15;0.32;;;13.20;49.70;;;;;;5051221;28;20033;-77
2023/03/28 09:56:05;;;;;;;3.65;0.90;;;13.00;47.60;;;;;;5050855;28;20090;-77
2023/03/28 09:58:55;;;;;;;2.30;0.65;;;12.50;50.40;;;;;;5050869;28;20029;-78
2023/03/28 10:01:45;;;;;;;3.63;0.70;;;12.40;52.70;;;;;;5049159;28;20071;-76
2023/03/28 10:04:17;;;;;;;2.60;0.60;;;12.80;53.20;;;;;;5050154;28;20041;-77
2023/03/28 10:06:44;;;;;;;1.05;0.50;;;13.40;51.70;;;;;;5049900;28;20144;-77
2023/03/28 10:09:53;;;;;;;2.20;0.50;;;13.90;50.80;;;;;;5050502;28;20033;-75
2023/03/28 10:12:35;;;;;;;0.85;0.40;;;14.10;49.10;;;;;;5049856;28;20033;-78
2023/03/28 10:15:00;;;;;;;3.00;0.70;;;14.40;46.10;;;;;;5050256;28;20036;-76
2023/03/28 10:17:35;;;;;;;1.33;0.40;;;14.00;46.10;;;;;;5050058;28;20033;-77
2023/03/28 10:20:16;;;;;;;1.98;0.60;;;13.00;46.30;;;;;;5050319;28;20033;-77
2023/03/28 10:22:45;;;;;;;2.05;0.90;;;12.10;48.30;;;;;;5050444;28;20021;-77
2023/03/28 10:25:41;;;;;;;6.47;3.33;;;11.30;49.20;;;;;;5050651;28;20399;-77
2023/03/28 10:28:12;;;;;;;5.95;1.98;;;10.70;50.40;;;;;;5048979;28;20025;-76
2023/03/28 10:30:38;;;;;;;4.20;1.40;;;9.90;52.20;;;;;;5048666;28;20029;-76
2023/03/28 10:33:10;;;;;;;4.25;2.00;;;9.60;54.80;;;;;;5050100;28;20027;-78
2023/03/28 10:35:40;;;;;;;2.50;1.08;;;9.40;53.80;;;;;;5049856;28;20795;-76
2023/03/28 10:38:16;;;;;;;2.85;1.38;;;9.30;53.20;;;;;;5049213;28;20110;-77
2023/03/28 10:40:49;;;;;;;7.40;2.47;;;9.00;54.00;;;;;;5049928;28;20032;-76
2023/03/28 10:43:15;;;;;;;6.28;1.35;;;8.50;56.70;;;;;;5048419;28;20033;-75
2023/03/28 10:45:42;;;;;;;;;;;7.70;63.80;;;;;;5050418;28;20479;-76
2023/03/28 10:48:17;;;;;;;2.30;0.68;;;6.30;74.20;;;;;;5049871;28;20365;-76
2023/03/28 10:50:53;;;;;;;2.90;1.50;;;5.30;90.40;;;;;;5050308;28;20033;-76
2023/03/28 10:53:33;;;;;;;4.88;1.88;;;4.50;99.90;;;;;;5048495;28;20025;-76
2023/03/28 10:56:02;;;;;;;6.57;3.80;;;4.00;99.90;;;;;;5049553;28;20029;-76
2023/03/28 10:58:36;;;;;;;7.03;3.28;;;3.80;99.90;;;;;;5048361;28;20147;-76
2023/03/28 11:01:21;;;;;;;15.32;7.47;;;3.80;99.90;;;;;;5048297;28;20054;-76
2023/03/28 11:03:55;;;;;;;20.67;13.63;;;3.90;99.90;;;;;;5049347;28;20032;-76
2023/03/28 11:06:45;;;;;;;8.88;5.30;;;4.00;99.90;;;;;;5049743;28;20032;-74
2023/03/28 11:09:13;;;;;;;4.35;2.33;;;4.10;99.90;;;;;;5049523;28;20056;-76
2023/03/28 11:12:00;;;;;;;5.32;3.00;;;4.30;99.90;;;;;;5048226;28;20025;-76
2023/03/28 11:14:44;;;;;;;3.53;1.70;;;4.50;99.90;;;;;;5048198;28;20040;-77
2023/03/28 11:17:35;;;;;;;2.60;0.70;;;4.80;99.90;;;;;;5049483;28;20029;-73
2023/03/28 11:20:19;;;;;;;1.33;0.30;;;5.20;99.90;;;;;;5048027;28;20551;-76
2023/03/28 11:23:18;;;;;;;1.38;0.50;;;5.70;99.90;;;;;;5048342;28;20569;-76
2023/03/28 11:25:57;;;;;;;1.65;0.45;;;6.10;96.80;;;;;;5049318;28;20076;-76
2023/03/28 11:28:53;;;;;;;7.72;2.28;;;6.40;92.80;;;;;;5048256;28;20501;-76
2023/03/28 11:31:25;;;;;;;5.57;3.78;;;6.70;85.60;;;;;;5048987;28;20387;-76
2023/03/28 11:34:18;;;;;;;0.95;0.50;;;6.80;83.90;;;;;;5049114;28;20386;-76
2023/03/28 11:37:09;;;;;;;2.03;0.80;;;7.20;78.90;;;;;;5048937;28;20029;-75
2023/03/28 11:39:53;;;;;;;2.45;0.60;;;7.40;67.50;;;;;;5047208;28;20033;-76
2023/03/28 11:42:50;;;;;;;1.88;0.40;;;7.60;70.10;;;;;;5048939;28;20025;-77
2023/03/28 11:45:35;;;;;;;3.47;0.40;;;7.50;67.00;;;;;;5047330;28;20025;-77
2023/03/28 11:48:13;;;;;;;2.47;0.52;;;7.60;65.30;;;;;;5048988;28;20032;-76
2023/03/28 11:50:57;;;;;;;1.52;0.35;;;7.60;64.70;;;;;;5048741;28;20074;-76
2023/03/28 11:53:30;;;;;;;2.78;0.28;;;7.50;62.60;;;;;;5048734;28;20031;-77
2023/03/28 11:56:10;;;;;;;2.03;0.38;;;7.60;61.30;;;;;;5048688;28;20098;-77
2023/03/28 11:58:41;;;;;;;2.30;0.73;;;7.50;63.90;;;;;;5047301;28;20025;-76
2023/03/28 12:01:12;;;;;;;1.80;0.52;;;7.50;60.80;;;;;;5046862;28;20039;-76
2023/03/28 12:04:16;;;;;;;1.05;0.40;;;7.60;56.20;;;;;;5048492;28;20025;-75
2023/03/28 12:07:06;;;;;;;3.47;1.48;;;7.80;55.20;;;;;;5048624;28;20135;-77
2023/03/28 12:09:49;;;;;;;2.25;0.75;;;7.90;55.20;;;;;;5047504;28;20029;-77
2023/03/28 12:12:23;;;;;;;1.33;0.30;;;7.80;55.30;;;;;;5048486;28;20025;-76
2023/03/28 12:14:51;;;;;;;0.65;0.30;;;8.10;56.50;;;;;;5047318;28;20017;-76
2023/03/28 12:17:22;;;;;;;1.30;0.40;;;8.20;54.80;;;;;;5047165;28;20094;-77
2023/03/28 12:19:48;;;;;;;3.75;0.38;;;8.20;57.00;;;;;;5048546;28;20461;-76
2023/03/28 12:22:18;;;;;;;;;;;8.20;56.10;;;;;;5049154;28;20064;-76
2023/03/28 12:24:47;;;;;;;1.63;0.30;;;8.10;55.90;;;;;;5048835;28;20086;-77
2023/03/28 12:27:27;;;;;;;2.67;0.80;;;8.00;55.40;;;;;;5049267;28;20025;-76
2023/03/28 12:30:10;;;;;;;2.63;0.55;;;7.90;53.70;;;;;;5047510;28;20786;-77
2023/03/28 12:32:42;;;;;;;4.57;0.40;;;8.20;55.10;;;;;;5046882;28;20044;-76
2023/03/28 12:35:21;;;;;;;18.27;4.72;;;8.40;55.70;;;;;;5046820;28;20476;-76
2023/03/28 12:37:53;;;;;;;14.90;8.18;;;8.40;58.10;;;;;;5048546;28;20086;-77
2023/03/28 12:40:27;;;;;;;5.32;2.13;;;7.80;60.50;;;;;;5048539;28;20087;-76
2023/03/28 12:42:56;;;;;;;4.47;1.33;;;7.40;59.80;;;;;;5047102;28;20568;-76
2023/03/28 12:45:31;;;;;;;4.45;0.88;;;7.10;56.00;;;;;;5047093;28;20568;-76
2023/03/28 12:48:05;;;;;;;1.88;0.80;;;7.00;54.90;;;;;;5046953;28;20039;-76
2023/03/28 12:51:00;;;;;;;2.90;1.50;;;7.00;57.00;;;;;;5046716;28;20021;-76
2023/03/28 12:53:30;;;;;;;3.72;1.52;;;7.00;54.40;;;;;;5038578;28;20025;-76
2023/03/28 12:55:55;;;;;;;3.28;1.42;;;7.10;52.30;;;;;;5047994;28;20536;-76
2023/03/28 12:58:22;;;;;;;;;;;7.10;50.30;;;;;;5048197;28;20079;-75
2023/03/28 13:01:00;;;;;;;30.73;11.70;;;7.20;49.40;;;;;;5047957;28;19916;-76
2023/03/28 13:03:41;;;;;;;18.88;8.23;;;7.20;48.60;;;;;;5051376;28;20029;-77
2023/03/28 13:06:44;;;;;;;19.88;10.52;;;7.40;48.40;;;;;;5051955;28;20036;-77
2023/03/28 13:09:22;;;;;;;25.75;14.10;;;7.50;44.90;;;;;;5051821;28;20025;-76
2023/03/28 13:12:24;;;;;;;9.38;4.97;;;7.40;43.80;;;;;;5052047;28;20067;-75
2023/03/28 13:15:01;;;;;;;10.88;5.20;;;7.50;43.30;;;;;;5050569;28;20032;-76
2023/03/28 13:17:28;;;;;;;;;;;7.40;42.80;;;;;;5052263;28;20448;-77
2023/03/28 13:20:16;;;;;;;17.02;11.43;;;7.20;42.90;;;;;;5051514;28;19995;-78
2023/03/28 13:22:48;;;;;;;2.75;1.50;;;7.20;42.90;;;;;;5052107;28;20194;-75
2023/03/28 13:25:34;;;;;;;6.57;2.67;;;7.10;40.80;;;;;;5051543;28;20397;-76
2023/03/28 13:28:18;;;;;;;2.80;0.95;;;7.20;42.40;;;;;;5051324;28;20616;-76
2023/03/28 13:31:03;;;;;;;3.67;1.80;;;7.20;41.80;;;;;;5049819;28;20033;-76
2023/03/28 13:33:33;;;;;;;24.77;11.27;;;7.40;44.80;;;;;;5050396;28;20032;-77